createdAt,value
2019-02-20T00:01:28.998Z,99419.52
2019-02-20T00:03:56.191Z,99412.19
2019-02-20T00:06:30.552Z,99419.70
2019-02-20T00:08:59.400Z,99427.59
2019-02-20T00:11:30.695Z,99427.67
2019-02-20T00:14:03.171Z,99435.13
2019-02-20T00:16:30.432Z,99444.77
2019-02-20T00:18:59.602Z,99442.20
2019-02-20T00:21:29.115Z,99446.61
2019-02-20T00:23:56.970Z,99451.91
2019-02-20T00:26:32.314Z,99450.22
2019-02-20T00:29:02.111Z,99441.96
2019-02-20T00:31:31.389Z,99438.91
2019-02-20T00:33:59.836Z,99459.46
2019-02-20T00:36:29.928Z,99452.14
2019-02-20T00:38:57.091Z,99452.19
2019-02-20T00:41:44.175Z,99453.52
2019-02-20T00:44:26.454Z,99458.36
2019-02-20T00:47:11.738Z,99454.50
2019-02-20T00:49:42.161Z,99468.53
2019-02-20T00:52:18.265Z,99475.13
2019-02-20T00:54:46.922Z,99469.96
2019-02-20T00:57:19.331Z,99476.11
2019-02-20T00:59:47.794Z,99484.36
2019-02-20T01:02:16.651Z,99487.05
2019-02-20T01:04:43.818Z,99491.88
2019-02-20T01:07:14.137Z,99499.76
2019-02-20T01:09:44.040Z,99499.73
2019-02-20T01:12:11.312Z,99497.13
2019-02-20T01:14:41.453Z,99508.92
2019-02-20T01:17:09.506Z,99494.07
2019-02-20T01:19:41.039Z,99494.98
2019-02-20T01:22:09.297Z,99497.19
2019-02-20T01:24:39.872Z,99498.91
2019-02-20T01:27:08.867Z,99492.81
2019-02-20T01:29:40.453Z,99496.79
2019-02-20T01:32:07.582Z,99492.43
2019-02-20T01:34:34.641Z,99491.63
2019-02-20T01:37:01.702Z,99481.63
2019-02-20T01:39:28.769Z,99486.91
2019-02-20T01:41:55.822Z,99497.80
2019-02-20T01:44:22.895Z,99494.78
2019-02-20T01:46:49.963Z,99485.22
2019-02-20T01:49:17.056Z,99485.23
2019-02-20T01:51:45.074Z,99495.76
2019-02-20T01:54:12.196Z,99498.84
2019-02-20T01:56:39.254Z,99512.00
2019-02-20T01:59:06.325Z,99509.88
2019-02-20T02:01:33.380Z,99514.73
2019-02-20T02:04:00.455Z,99527.87
2019-02-20T02:06:27.539Z,99528.73
2019-02-20T02:08:54.593Z,99534.48
2019-02-20T02:11:21.653Z,99535.78
2019-02-20T02:13:48.715Z,99542.73
2019-02-20T02:16:15.775Z,99550.97
2019-02-20T02:18:42.830Z,99556.16
2019-02-20T02:21:09.911Z,99546.93
2019-02-20T02:23:36.977Z,99554.31
2019-02-20T02:26:10.704Z,99554.72
2019-02-20T02:28:33.035Z,99548.11
2019-02-20T02:31:00.094Z,99547.19
2019-02-20T02:33:27.147Z,99558.06
2019-02-20T02:35:54.219Z,99557.20
2019-02-20T02:38:21.274Z,99558.97
2019-02-20T02:40:48.343Z,99558.11
2019-02-20T02:43:15.400Z,99565.91
2019-02-20T02:45:42.468Z,99560.73
2019-02-20T02:48:09.544Z,99574.69
2019-02-20T02:50:36.632Z,99581.66
2019-02-20T02:53:03.737Z,99584.75
2019-02-20T02:55:30.791Z,99600.05
2019-02-20T02:57:57.859Z,99614.91
2019-02-20T03:00:24.917Z,99614.97
2019-02-20T03:02:51.996Z,99621.92
2019-02-20T03:05:19.076Z,99625.50
2019-02-20T03:07:46.140Z,99629.03
2019-02-20T03:10:13.267Z,99630.39
2019-02-20T03:12:40.389Z,99636.95
2019-02-20T03:15:07.470Z,99650.09
2019-02-20T03:17:34.535Z,99645.30
2019-02-20T03:20:01.623Z,99655.82
2019-02-20T03:22:28.755Z,99668.06
2019-02-20T03:24:55.873Z,99664.98
2019-02-20T03:27:22.938Z,99685.47
2019-02-20T03:29:50.139Z,99686.38
2019-02-20T03:32:17.213Z,99699.50
2019-02-20T03:34:44.284Z,99699.86
2019-02-20T03:37:11.351Z,99704.24
2019-02-20T03:39:38.421Z,99712.50
2019-02-20T03:42:05.491Z,99713.80
2019-02-20T03:44:32.558Z,99718.97
2019-02-20T03:46:59.621Z,99725.46
2019-02-20T03:49:26.695Z,99727.58
2019-02-20T03:51:53.779Z,99736.30
2019-02-20T03:54:20.853Z,99751.59
2019-02-20T03:56:48.024Z,99753.74
2019-02-20T03:59:15.077Z,99772.06
2019-02-20T04:01:42.189Z,99773.83
2019-02-20T04:04:09.252Z,99786.01
2019-02-20T04:06:36.340Z,99793.45
2019-02-20T04:09:05.029Z,99796.13
2019-02-20T04:11:32.092Z,99791.34
2019-02-20T04:13:59.170Z,99801.42
2019-02-20T04:16:26.267Z,99813.65
2019-02-20T04:18:53.347Z,99804.03
2019-02-20T04:21:20.396Z,99819.73
2019-02-20T04:23:47.472Z,99828.45
2019-02-20T04:26:14.559Z,99824.97
2019-02-20T04:28:41.668Z,99844.64
2019-02-20T04:31:08.752Z,99853.84
2019-02-20T04:33:35.812Z,99861.30
2019-02-20T04:36:02.873Z,99861.75
2019-02-20T04:38:30.041Z,99870.05
2019-02-20T04:40:57.107Z,99878.80
2019-02-20T04:43:24.159Z,99890.62
2019-02-20T04:45:51.217Z,99902.39
2019-02-20T04:48:18.276Z,99900.23
2019-02-20T04:50:45.357Z,99916.38
2019-02-20T04:53:12.423Z,99913.81
2019-02-20T04:55:39.482Z,99920.72
2019-02-20T04:58:14.266Z,99932.53
2019-02-20T05:00:41.415Z,99927.80
2019-02-20T05:03:08.486Z,99946.59
2019-02-20T05:05:35.544Z,99947.04
2019-02-20T05:08:02.600Z,99963.23
2019-02-20T05:10:29.672Z,99968.95
2019-02-20T05:12:56.740Z,99969.85
2019-02-20T05:15:23.829Z,99975.12
2019-02-20T05:17:50.915Z,99981.32
2019-02-20T05:20:17.979Z,99979.64
2019-02-20T05:22:45.033Z,99993.65
2019-02-20T05:25:12.108Z,100002.80
2019-02-20T05:27:39.165Z,100011.06
2019-02-20T05:30:06.470Z,100019.83
2019-02-20T05:32:33.536Z,100027.30
2019-02-20T05:35:00.734Z,100039.51
2019-02-20T05:37:27.772Z,100039.98
2019-02-20T05:39:54.819Z,100045.63
2019-02-20T05:42:21.870Z,100062.21
2019-02-20T05:44:48.981Z,100060.94
2019-02-20T05:47:16.027Z,100056.56
2019-02-20T05:49:43.088Z,100066.64
2019-02-20T05:52:10.214Z,100078.94
2019-02-20T05:54:38.374Z,100086.34
2019-02-20T05:57:05.455Z,100092.03
2019-02-20T05:59:32.534Z,100096.88
2019-02-20T06:01:59.587Z,100102.58
2019-02-20T06:04:26.651Z,100095.20
2019-02-20T06:06:53.708Z,100105.27
2019-02-20T06:09:20.798Z,100105.27
2019-02-20T06:11:47.885Z,100107.03
2019-02-20T06:14:14.996Z,100113.20
2019-02-20T06:16:43.924Z,100128.44
2019-02-20T06:19:11.010Z,100120.59
2019-02-20T06:21:38.285Z,100131.92
2019-02-20T06:24:05.350Z,100135.87
2019-02-20T06:26:32.524Z,100137.17
2019-02-20T06:28:59.634Z,100151.11
2019-02-20T06:31:26.732Z,100153.32
2019-02-20T06:33:53.795Z,100161.12
2019-02-20T06:36:20.856Z,100162.47
2019-02-20T06:38:47.921Z,100179.05
2019-02-20T06:41:14.990Z,100186.41
2019-02-20T06:43:42.052Z,100183.40
2019-02-20T06:46:09.106Z,100193.87
2019-02-20T06:48:36.192Z,100194.73
2019-02-20T06:51:08.404Z,100196.92
2019-02-20T06:53:35.455Z,100197.34
2019-02-20T06:56:04.841Z,100215.20
2019-02-20T06:58:31.894Z,100223.06
2019-02-20T07:00:58.963Z,100210.85
2019-02-20T07:03:26.060Z,100228.23
2019-02-20T07:06:36.149Z,100233.89
2019-02-20T07:09:33.681Z,100248.72
2019-02-20T07:12:24.256Z,100248.30
2019-02-20T07:15:10.010Z,100260.06
2019-02-20T07:18:20.981Z,100264.86
2019-02-20T07:21:48.090Z,100270.08
2019-02-20T07:25:03.212Z,100284.87
2019-02-20T07:27:49.246Z,100284.40
2019-02-20T07:30:19.046Z,100301.37
2019-02-20T07:32:46.108Z,100303.98
2019-02-20T07:35:13.163Z,100324.44
2019-02-20T07:37:40.297Z,100320.95
2019-02-20T07:40:11.619Z,100316.13
2019-02-20T07:42:38.711Z,100325.70
2019-02-20T07:45:07.641Z,100340.02
2019-02-20T07:47:34.708Z,100338.71
2019-02-20T07:50:01.762Z,100350.92
2019-02-20T07:52:28.866Z,100346.99
2019-02-20T07:54:55.926Z,100363.98
2019-02-20T07:57:23.029Z,100370.91
2019-02-20T07:59:50.092Z,100377.45
2019-02-20T08:02:17.151Z,100391.83
2019-02-20T08:04:44.248Z,100404.00
2019-02-20T08:07:11.336Z,100397.89
2019-02-20T08:09:38.391Z,100405.73
2019-02-20T08:12:05.451Z,100417.47
2019-02-20T08:14:32.500Z,100435.29
2019-02-20T08:16:59.552Z,100449.66
2019-02-20T08:19:26.637Z,100439.64
2019-02-20T08:21:53.682Z,100454.88
2019-02-20T08:24:20.736Z,100468.36
2019-02-20T08:26:47.822Z,100464.89
2019-02-20T08:29:14.879Z,100470.96
2019-02-20T08:31:41.931Z,100467.89
2019-02-20T08:34:09.008Z,100480.97
2019-02-20T08:36:36.085Z,100470.48
2019-02-20T08:39:04.751Z,100482.67
2019-02-20T08:41:31.811Z,100497.06
2019-02-20T08:43:58.870Z,100492.26
2019-02-20T08:46:25.937Z,100517.10
2019-02-20T08:48:52.993Z,100524.51
2019-02-20T08:51:20.056Z,100520.12
2019-02-20T08:53:47.115Z,100520.98
2019-02-20T08:56:14.195Z,100526.22
2019-02-20T08:58:41.265Z,100529.24
2019-02-20T09:01:08.320Z,100547.10
2019-02-20T09:03:35.390Z,100550.58
2019-02-20T09:06:02.448Z,100554.91
2019-02-20T09:08:29.521Z,100536.58
2019-02-20T09:10:56.640Z,100550.98
2019-02-20T09:13:23.809Z,100546.14
2019-02-20T09:15:50.874Z,100568.83
2019-02-20T09:18:19.704Z,100542.16
2019-02-20T09:20:46.769Z,100555.70
2019-02-20T09:23:13.832Z,100566.14
2019-02-20T09:25:41.866Z,100566.53
2019-02-20T09:28:09.098Z,100567.79
2019-02-20T09:30:36.164Z,100578.20
2019-02-20T09:33:03.220Z,100578.58
2019-02-20T09:35:30.282Z,100566.27
2019-02-20T09:37:57.350Z,100575.81
2019-02-20T09:40:24.405Z,100582.31
2019-02-20T09:42:51.533Z,100578.39
2019-02-20T09:45:18.538Z,100581.45
2019-02-20T09:47:45.627Z,100587.52
2019-02-20T09:50:12.694Z,100584.37
2019-02-20T09:52:39.750Z,100606.20
2019-02-20T09:55:07.903Z,100606.62
2019-02-20T09:57:34.993Z,100620.16
2019-02-20T10:00:02.090Z,100624.19
2019-02-20T10:02:29.125Z,100625.92
2019-02-20T10:04:56.179Z,100634.18
2019-02-20T10:07:23.259Z,100643.69
2019-02-20T10:09:50.319Z,100663.64
2019-02-20T10:12:17.378Z,100678.50
2019-02-20T10:14:44.437Z,100680.63
2019-02-20T10:17:11.533Z,100681.16
2019-02-20T10:19:38.593Z,100678.97
2019-02-20T10:22:05.661Z,100686.28
2019-02-20T10:24:32.762Z,100686.19
2019-02-20T10:27:00.894Z,100691.33
2019-02-20T10:29:28.282Z,100690.77
2019-02-20T10:31:55.359Z,100688.52
2019-02-20T10:34:22.421Z,100686.31
2019-02-20T10:36:49.482Z,100690.16
2019-02-20T10:39:16.556Z,100696.67
2019-02-20T10:41:43.622Z,100694.45
2019-02-20T10:44:10.695Z,100711.58
2019-02-20T10:46:37.792Z,100707.11
2019-02-20T10:49:04.896Z,100709.25
2019-02-20T10:51:31.959Z,100718.95
2019-02-20T10:53:59.046Z,100734.13
2019-02-20T10:56:26.101Z,100724.64
2019-02-20T10:58:53.160Z,100727.69
2019-02-20T11:01:20.327Z,100741.31
2019-02-20T11:03:47.428Z,100741.37
2019-02-20T11:06:14.492Z,100745.28
2019-02-20T11:09:08.748Z,100746.53
2019-02-20T11:11:36.091Z,100751.86
2019-02-20T11:14:03.160Z,100754.14
2019-02-20T11:16:30.211Z,100762.51
2019-02-20T11:18:57.331Z,100770.80
2019-02-20T11:21:24.391Z,100762.98
2019-02-20T11:23:51.697Z,100777.85
2019-02-20T11:26:18.882Z,100770.44
2019-02-20T11:28:45.957Z,100774.76
2019-02-20T11:31:13.027Z,100789.17
2019-02-20T11:33:40.101Z,100782.64
2019-02-20T11:36:07.160Z,100786.56
2019-02-20T11:38:34.231Z,100799.70
2019-02-20T11:41:01.292Z,100809.30
2019-02-20T11:43:28.426Z,100812.80
2019-02-20T11:45:55.482Z,100822.88
2019-02-20T11:48:22.530Z,100820.70
2019-02-20T11:50:49.592Z,100827.70
2019-02-20T11:53:16.894Z,100821.59
2019-02-20T11:55:43.960Z,100837.33
2019-02-20T11:58:11.011Z,100838.22
2019-02-20T12:00:38.083Z,100845.20
2019-02-20T12:03:05.142Z,100854.86
2019-02-20T12:05:32.204Z,100849.23
2019-02-20T12:07:59.262Z,100856.20
2019-02-20T12:10:26.326Z,100847.50
2019-02-20T12:12:53.388Z,100849.70
2019-02-20T12:15:20.463Z,100868.08
2019-02-20T12:17:47.520Z,100874.13
2019-02-20T12:20:14.579Z,100869.36
2019-02-20T12:22:41.667Z,100877.30
2019-02-20T12:25:08.834Z,100884.75
2019-02-20T12:27:35.889Z,100878.66
2019-02-20T12:30:03.671Z,100880.40
2019-02-20T12:32:30.989Z,100897.86
2019-02-20T12:34:58.088Z,100890.43
2019-02-20T12:37:25.162Z,100899.17
2019-02-20T12:39:52.219Z,100893.91
2019-02-20T12:42:19.284Z,100910.52
2019-02-20T12:44:46.345Z,100913.98
2019-02-20T12:47:13.399Z,100914.45
2019-02-20T12:49:40.456Z,100924.06
2019-02-20T12:52:07.512Z,100931.48
2019-02-20T12:54:34.574Z,100932.78
2019-02-20T12:57:01.629Z,100937.18
2019-02-20T12:59:28.727Z,100938.05
2019-02-20T13:01:55.798Z,100952.02
2019-02-20T13:04:24.594Z,100953.80
2019-02-20T13:06:59.226Z,100957.77
2019-02-20T13:09:20.665Z,100971.30
2019-02-20T13:11:47.732Z,100971.75
2019-02-20T13:14:14.797Z,100977.89
2019-02-20T13:16:41.865Z,100985.31
2019-02-20T13:19:08.919Z,100989.69
2019-02-20T13:21:35.969Z,100985.34
2019-02-20T13:24:03.039Z,100996.72
2019-02-20T13:26:30.116Z,100992.34
2019-02-20T13:28:57.186Z,101003.69
2019-02-20T13:31:24.244Z,100993.66
2019-02-20T13:33:51.312Z,101008.08
2019-02-20T13:36:18.470Z,101006.77
2019-02-20T13:38:45.543Z,101012.44
2019-02-20T13:41:13.245Z,101012.41
2019-02-20T13:43:40.299Z,101019.41
2019-02-20T13:46:07.365Z,101026.41
2019-02-20T13:48:34.981Z,101030.76
2019-02-20T13:51:02.175Z,101039.49
2019-02-20T13:53:29.255Z,101042.57
2019-02-20T13:55:56.321Z,101040.36
2019-02-20T13:58:23.781Z,101045.18
2019-02-20T14:00:50.839Z,101057.00
2019-02-20T14:03:17.902Z,101057.86
2019-02-20T14:05:44.951Z,101059.19
2019-02-20T14:08:12.043Z,101060.52
2019-02-20T14:10:39.097Z,101065.32
2019-02-20T14:13:06.166Z,101064.45
2019-02-20T14:15:33.220Z,101071.85
2019-02-20T14:18:00.674Z,101065.76
2019-02-20T14:20:27.768Z,101077.95
2019-02-20T14:22:54.822Z,101081.03
2019-02-20T14:25:21.887Z,101089.31
2019-02-20T14:27:49.806Z,101093.24
2019-02-20T14:30:16.870Z,101101.98
2019-02-20T14:32:43.930Z,101103.28
2019-02-20T14:35:11.034Z,101110.70
2019-02-20T14:37:39.380Z,101120.28
2019-02-20T14:40:06.733Z,101122.87
2019-02-20T14:42:33.791Z,101130.28
2019-02-20T14:45:00.900Z,101136.41
2019-02-20T14:47:28.038Z,101141.65
2019-02-20T14:49:55.111Z,101135.92
2019-02-20T14:52:22.264Z,101144.66
2019-02-20T14:54:49.379Z,101148.13
2019-02-20T14:57:19.624Z,101152.95
2019-02-20T14:59:45.724Z,101158.60
2019-02-20T15:02:12.803Z,101155.11
2019-02-20T15:04:41.675Z,101161.23
2019-02-20T15:07:08.752Z,101164.28
2019-02-20T15:09:35.927Z,101168.19
2019-02-20T15:12:03.016Z,101168.17
2019-02-20T15:14:30.493Z,101179.05
2019-02-20T15:16:57.550Z,101185.58
2019-02-20T15:19:24.625Z,101195.19
2019-02-20T15:21:51.730Z,101196.05
2019-02-20T15:24:18.806Z,101202.58
2019-02-20T15:26:45.876Z,101201.70
2019-02-20T15:29:12.966Z,101212.16
2019-02-20T15:31:40.076Z,101217.78
2019-02-20T15:34:07.436Z,101222.97
2019-02-20T15:36:34.494Z,101228.19
2019-02-20T15:39:04.477Z,101232.52
2019-02-20T15:41:31.550Z,101238.17
2019-02-20T15:43:58.620Z,101235.94
2019-02-20T15:46:25.726Z,101247.25
2019-02-20T15:48:52.903Z,101246.34
2019-02-20T15:51:20.356Z,101250.25
2019-02-20T15:53:47.435Z,101257.22
2019-02-20T15:56:14.503Z,101259.39
2019-02-20T15:58:41.585Z,101260.67
2019-02-20T16:01:09.068Z,101267.16
2019-02-20T16:03:37.238Z,101267.56
2019-02-20T16:06:05.450Z,101273.63
2019-02-20T16:08:32.647Z,101280.58
2019-02-20T16:11:00.027Z,101283.12
2019-02-20T16:13:27.206Z,101291.36
2019-02-20T16:15:54.403Z,101288.72
2019-02-20T16:18:21.490Z,101291.30
2019-02-20T16:20:48.545Z,101304.73
2019-02-20T16:23:15.661Z,101308.65
2019-02-20T16:25:44.790Z,101315.70
2019-02-20T16:28:11.937Z,101305.56
2019-02-20T16:30:39.003Z,101315.95
2019-02-20T16:33:06.064Z,101326.79
2019-02-20T16:35:33.145Z,101326.23
2019-02-20T16:38:00.232Z,101331.38
2019-02-20T16:40:27.300Z,101328.25
2019-02-20T16:42:54.498Z,101336.47
2019-02-20T16:45:22.666Z,101342.95
2019-02-20T16:47:50.141Z,101348.58
2019-02-20T16:50:17.245Z,101351.57
2019-02-20T16:52:44.326Z,101346.22
2019-02-20T16:55:11.399Z,101352.70
2019-02-20T16:57:38.486Z,101360.05
2019-02-20T17:00:06.017Z,101360.43
2019-02-20T17:02:33.088Z,101365.20
2019-02-20T17:05:00.285Z,101368.20
2019-02-20T17:07:28.149Z,101375.08
2019-02-20T17:09:55.311Z,101369.31
2019-02-20T17:12:23.657Z,101374.48
2019-02-20T17:14:50.735Z,101380.08
2019-02-20T17:17:17.798Z,101379.09
2019-02-20T17:19:44.934Z,101382.03
2019-02-20T17:22:11.992Z,101393.33
2019-02-20T17:24:39.352Z,101398.94
2019-02-20T17:27:06.424Z,101410.72
2019-02-20T17:29:33.588Z,101418.45
2019-02-20T17:32:00.639Z,101411.43
2019-02-20T17:34:27.976Z,101418.31
2019-02-20T17:36:55.170Z,101421.25
2019-02-20T17:39:22.243Z,101432.04
2019-02-20T17:41:49.416Z,101436.28
2019-02-20T17:44:17.909Z,101446.64
2019-02-20T17:46:44.978Z,101453.09
2019-02-20T17:49:12.092Z,101450.36
2019-02-20T17:51:39.151Z,101459.85
2019-02-20T17:54:06.275Z,101465.86
2019-02-20T17:56:33.473Z,101475.80
2019-02-20T17:59:00.715Z,101479.58
2019-02-20T18:01:28.043Z,101484.33
2019-02-20T18:03:55.251Z,101492.09
2019-02-20T18:06:22.496Z,101484.72
2019-02-20T18:08:49.800Z,101496.09
2019-02-20T18:11:17.036Z,101493.09
2019-02-20T18:13:45.362Z,101496.95
2019-02-20T18:16:12.430Z,101509.47
2019-02-20T18:18:39.496Z,101511.08
2019-02-20T18:21:07.823Z,101512.34
2019-02-20T18:23:35.891Z,101521.47
2019-02-20T18:26:03.224Z,101528.36
2019-02-20T18:28:30.514Z,101530.45
2019-02-20T18:30:57.589Z,101533.48
2019-02-20T18:33:24.673Z,101530.75
2019-02-20T18:35:51.809Z,101533.29
2019-02-20T18:38:19.195Z,101545.80
2019-02-20T18:40:46.403Z,101550.11
2019-02-20T18:43:13.456Z,101553.02
2019-02-20T18:45:40.611Z,101559.79
2019-02-20T18:48:07.692Z,101565.22
2019-02-20T18:50:34.753Z,101568.59
2019-02-20T18:53:02.002Z,101565.55
2019-02-20T18:55:29.199Z,101570.42
2019-02-20T18:57:56.448Z,101562.66
2019-02-20T19:00:23.518Z,101568.77
2019-02-20T19:02:50.752Z,101574.26
2019-02-20T19:05:19.020Z,101577.48
2019-02-20T19:07:48.510Z,101586.83
2019-02-20T19:10:20.907Z,101582.48
2019-02-20T19:13:22.276Z,101586.04
2019-02-20T19:16:17.332Z,101583.86
2019-02-20T19:19:44.291Z,101585.45
2019-02-20T19:22:33.600Z,101587.20
2019-02-20T19:25:54.427Z,101594.55
2019-02-20T19:29:03.971Z,101597.88
2019-02-20T19:32:02.544Z,101604.26
2019-02-20T19:35:14.056Z,101613.70
2019-02-20T19:38:41.058Z,101629.33
2019-02-20T19:41:58.785Z,101626.23
2019-02-20T19:44:53.693Z,101630.05
2019-02-20T19:47:50.460Z,101635.27
2019-02-20T19:50:33.095Z,101634.36
2019-02-20T19:53:24.760Z,101633.91
2019-02-20T19:56:33.845Z,101640.78
2019-02-20T19:59:44.907Z,101640.78
2019-02-20T20:02:49.481Z,101639.92
2019-02-20T20:06:22.809Z,101638.45
2019-02-20T20:08:58.355Z,101649.52
2019-02-20T20:12:01.934Z,101657.14
2019-02-20T20:14:54.601Z,101660.59
2019-02-20T20:18:08.543Z,101664.42
2019-02-20T20:21:01.778Z,101674.92
2019-02-20T20:24:02.308Z,101688.87
2019-02-20T20:26:42.903Z,101683.21
2019-02-20T20:29:35.335Z,101682.19
2019-02-20T20:32:52.972Z,101695.01
2019-02-20T20:35:31.141Z,101703.30
2019-02-20T20:38:51.760Z,101701.52
2019-02-20T20:41:56.488Z,101701.03
2019-02-20T20:44:43.342Z,101709.22
2019-02-20T20:47:49.682Z,101708.67
2019-02-20T20:50:45.600Z,101709.09
2019-02-20T20:53:49.445Z,101707.77
2019-02-20T20:56:57.340Z,101708.48
2019-02-20T21:00:04.009Z,101716.71
2019-02-20T21:02:58.128Z,101723.98
2019-02-20T21:06:10.180Z,101730.88
2019-02-20T21:08:44.339Z,101729.58
2019-02-20T21:12:17.766Z,101729.91
2019-02-20T21:15:29.950Z,101724.64
2019-02-20T21:18:45.253Z,101729.91
2019-02-20T21:21:32.753Z,101732.45
2019-02-20T21:24:27.337Z,101735.56
2019-02-20T21:27:36.503Z,101744.34
2019-02-20T21:30:44.464Z,101752.69
2019-02-20T21:33:59.138Z,101753.73
2019-02-20T21:36:38.170Z,101757.73
2019-02-20T21:39:36.032Z,101758.64
2019-02-20T21:42:46.592Z,101764.78
2019-02-20T21:46:00.656Z,101760.91
2019-02-20T21:48:58.451Z,101765.30
2019-02-20T21:52:19.483Z,101770.08
2019-02-20T21:55:01.826Z,101773.47
2019-02-20T21:58:17.023Z,101774.83
2019-02-20T22:01:13.358Z,101770.08
2019-02-20T22:04:02.415Z,101766.67
2019-02-20T22:07:14.471Z,101759.52
2019-02-20T22:10:38.768Z,101768.52
2019-02-20T22:14:21.326Z,101768.48
2019-02-20T22:17:25.075Z,101775.09
2019-02-20T22:20:46.103Z,101776.48
2019-02-20T22:23:49.804Z,101777.27
2019-02-20T22:26:59.576Z,101778.92
2019-02-20T22:30:18.167Z,101786.40
2019-02-20T22:33:23.084Z,101782.23
2019-02-20T22:36:20.162Z,101779.73
2019-02-20T22:39:08.763Z,101784.94
2019-02-20T22:42:11.985Z,101786.59
2019-02-20T22:45:21.652Z,101789.20
2019-02-20T22:48:51.600Z,101785.72
2019-02-20T22:51:55.693Z,101782.05
2019-02-20T22:55:05.405Z,101791.89
2019-02-20T22:58:15.616Z,101793.16
2019-02-20T23:01:51.931Z,101799.29
2019-02-20T23:05:13.079Z,101816.66
2019-02-20T23:08:10.553Z,101811.45
2019-02-20T23:11:14.694Z,101814.05
2019-02-20T23:14:38.567Z,101811.45
2019-02-20T23:17:05.648Z,101813.84
2019-02-20T23:19:32.707Z,101819.14
2019-02-20T23:21:59.797Z,101815.34
2019-02-20T23:24:26.872Z,101821.92
2019-02-20T23:26:53.956Z,101820.80
2019-02-20T23:29:21.026Z,101821.03
2019-02-20T23:31:48.086Z,101815.16
2019-02-20T23:34:15.213Z,101820.14
2019-02-20T23:36:42.289Z,101816.30
2019-02-20T23:39:09.672Z,101812.05
2019-02-20T23:41:36.731Z,101813.80
2019-02-20T23:44:03.789Z,101819.49
2019-02-20T23:46:30.911Z,101815.73
2019-02-20T23:48:58.021Z,101809.55
2019-02-20T23:51:26.853Z,101812.80
2019-02-20T23:53:53.915Z,101816.07
2019-02-20T23:56:20.974Z,101820.30
2019-02-20T23:58:48.078Z,101820.25
